Aviation Digital Data Service (ADDS)

Output produced by METARs form (1053 UTC 01 March 2015)
found at http://www.aviationweather.gov/adds/metars/
 
METAR text: KCCU 011035Z AUTO 26012G18KT 1SM SN OVC004 M08/M11 A2991 RMK AO2 LTG DSNT W
Conditions at: KCCU (RED CLIFF PASS , CO, US) observed 1035 UTC 01 March 2015
Temperature: -8.0°C (18°F)
Dewpoint: -11.0°C (12°F) [RH = 79%]
Pressure (altimeter): 29.91 inches Hg (1013.0 mb)
Winds: from the W (260 degrees) at 14 MPH (12 knots; 6.2 m/s)
gusting to 21 MPH (18 knots; 9.4 m/s)
Visibility: 1.00 miles (1.61 km)
Ceiling: 400 feet AGL
Clouds: overcast cloud deck at 400 feet AGL
Weather: SN  (snow)